Time;durP1;ratioP1;P1;durP2;ratioP2;P2;SDS_P1;SDS_P2;PMS_P1;PMS_P2;Temp;Humidity;BMP_temperature;BMP_pressure;BME280_temperature;BME280_humidity;BME280_pressure;Samples;Min_cycle;Max_cycle;Signal;HPM_P1;HPM_P2
2023/12/01 00:00:17;;;;;;;69.75;40.85;;;1.30;99.90;;;;;;2090894;28;20040;-80
2023/12/01 00:01:18;;;;;;;70.97;41.30;;;1.30;99.90;;;;;;2098365;28;20032;-79
2023/12/01 00:02:20;;;;;;;69.20;41.63;;;1.30;99.90;;;;;;2095908;28;20120;-80
2023/12/01 00:03:20;;;;;;;70.43;41.38;;;1.30;99.90;;;;;;2098807;28;20059;-80
2023/12/01 00:04:21;;;;;;;72.38;42.20;;;1.30;99.90;;;;;;2098620;28;20024;-79
2023/12/01 00:05:22;;;;;;;75.78;42.60;;;1.40;99.90;;;;;;2094218;28;20122;-79
2023/12/01 00:06:22;;;;;;;74.03;43.20;;;1.30;99.90;;;;;;2090360;28;20040;-80
2023/12/01 00:07:23;;;;;;;72.70;42.53;;;1.30;99.90;;;;;;2096149;28;20034;-81
2023/12/01 00:08:23;;;;;;;74.63;42.65;;;1.30;99.90;;;;;;2095997;28;20055;-80
2023/12/01 00:09:24;;;;;;;76.43;43.63;;;1.30;99.90;;;;;;2086979;28;20032;-80
2023/12/01 00:10:24;;;;;;;75.65;42.53;;;1.30;99.90;;;;;;2082182;28;20487;-81
2023/12/01 00:11:25;;;;;;;73.57;42.63;;;1.30;99.90;;;;;;2087861;28;20035;-79
2023/12/01 00:12:25;;;;;;;75.25;42.72;;;1.20;99.90;;;;;;2096334;28;20156;-80
2023/12/01 00:13:26;;;;;;;73.43;42.42;;;1.20;99.90;;;;;;2094469;28;20047;-79
2023/12/01 00:14:26;;;;;;;73.07;42.05;;;1.20;99.90;;;;;;2093082;28;20025;-81
2023/12/01 00:15:27;;;;;;;72.65;42.13;;;1.20;99.90;;;;;;2094353;28;20392;-78
2023/12/01 00:16:27;;;;;;;74.07;41.97;;;1.20;99.90;;;;;;2095567;28;20032;-80
2023/12/01 00:17:28;;;;;;;76.57;42.92;;;1.20;99.90;;;;;;2097801;28;20126;-81
2023/12/01 00:18:28;;;;;;;78.45;43.55;;;1.20;99.90;;;;;;2097081;28;20028;-80
2023/12/01 00:19:29;;;;;;;73.30;41.65;;;1.10;99.90;;;;;;2091963;28;20032;-80
2023/12/01 00:20:30;;;;;;;71.18;41.33;;;1.20;99.90;;;;;;2087052;28;20036;-80
2023/12/01 00:21:31;;;;;;;71.57;41.40;;;1.20;99.90;;;;;;2090505;28;20103;-81
2023/12/01 00:22:32;;;;;;;73.63;43.03;;;1.20;99.90;;;;;;2098022;28;20496;-80
2023/12/01 00:23:32;;;;;;;73.55;42.50;;;1.20;99.90;;;;;;2097059;28;20063;-80
2023/12/01 00:24:33;;;;;;;74.85;42.30;;;1.20;99.90;;;;;;2099572;28;20061;-80
2023/12/01 00:25:33;;;;;;;72.90;41.85;;;1.10;99.90;;;;;;2097696;28;20129;-81
2023/12/01 00:26:34;;;;;;;74.15;42.58;;;1.10;99.90;;;;;;2094907;28;20048;-80
2023/12/01 00:27:36;;;;;;;78.43;43.95;;;1.20;99.90;;;;;;2096037;28;20044;-80
2023/12/01 00:28:36;;;;;;;77.13;43.67;;;1.10;99.90;;;;;;2096998;28;20174;-80
2023/12/01 00:29:37;;;;;;;79.30;44.50;;;1.10;99.90;;;;;;2091728;28;20033;-81
2023/12/01 00:30:38;;;;;;;77.43;43.40;;;1.10;99.90;;;;;;2095625;28;20063;-82
2023/12/01 00:31:38;;;;;;;78.15;42.67;;;1.10;99.90;;;;;;2089299;28;20052;-83
2023/12/01 00:32:39;;;;;;;79.22;43.47;;;1.10;99.90;;;;;;2093085;28;20043;-81
2023/12/01 00:33:41;;;;;;;79.65;44.60;;;1.10;99.90;;;;;;2097746;28;20024;-81
2023/12/01 00:34:41;;;;;;;76.88;43.30;;;1.00;99.90;;;;;;2097404;28;20028;-81
2023/12/01 00:35:42;;;;;;;79.22;44.42;;;1.10;99.90;;;;;;2097765;28;20035;-79
2023/12/01 00:36:43;;;;;;;77.72;44.55;;;1.00;99.90;;;;;;2094954;28;20040;-80
2023/12/01 00:37:43;;;;;;;75.88;43.20;;;1.00;99.90;;;;;;2090338;28;20021;-81
2023/12/01 00:38:44;;;;;;;76.97;42.75;;;1.00;99.90;;;;;;2097044;28;20027;-79
2023/12/01 00:39:44;;;;;;;77.50;43.88;;;1.10;99.90;;;;;;2089413;28;20025;-79
2023/12/01 00:40:45;;;;;;;78.70;44.35;;;1.00;99.90;;;;;;2082190;28;20028;-80
2023/12/01 00:41:46;;;;;;;77.93;43.95;;;1.00;99.90;;;;;;2098777;28;20032;-81
2023/12/01 00:42:46;;;;;;;79.50;44.42;;;1.00;99.90;;;;;;2097350;28;20417;-82
2023/12/01 00:43:47;;;;;;;80.95;45.03;;;1.00;99.90;;;;;;2088602;28;20032;-80
2023/12/01 00:44:47;;;;;;;80.85;44.75;;;1.00;99.90;;;;;;2087166;28;20451;-82
2023/12/01 00:45:48;;;;;;;78.30;44.00;;;1.00;99.90;;;;;;2083047;28;20184;-82
2023/12/01 00:46:48;;;;;;;80.88;44.80;;;1.00;99.90;;;;;;2097964;28;20039;-81
2023/12/01 00:47:49;;;;;;;81.47;45.50;;;1.00;99.90;;;;;;2097854;28;20024;-82
2023/12/01 00:48:49;;;;;;;78.82;44.17;;;1.00;99.90;;;;;;2097050;28;20050;-82
2023/12/01 00:49:50;;;;;;;82.15;45.88;;;1.00;99.90;;;;;;2097049;28;20096;-80
2023/12/01 00:50:52;;;;;;;75.85;43.47;;;1.00;99.90;;;;;;2091504;28;20567;-81
2023/12/01 00:51:52;;;;;;;77.50;42.95;;;1.00;99.90;;;;;;2096996;28;20038;-82
2023/12/01 00:52:53;;;;;;;82.70;44.33;;;1.00;99.90;;;;;;2095031;28;20027;-81
2023/12/01 00:53:53;;;;;;;78.03;43.95;;;1.00;99.90;;;;;;2088326;28;20063;-80
2023/12/01 00:54:54;;;;;;;77.97;43.65;;;1.00;99.90;;;;;;2097866;28;20036;-82
2023/12/01 00:55:55;;;;;;;80.32;43.97;;;1.00;99.90;;;;;;2095736;28;20198;-81
2023/12/01 00:56:55;;;;;;;79.65;44.38;;;1.00;99.90;;;;;;2092877;28;20462;-81
2023/12/01 00:57:56;;;;;;;78.45;45.10;;;1.00;99.90;;;;;;2096511;28;20679;-82
2023/12/01 00:58:56;;;;;;;82.78;45.97;;;1.00;99.90;;;;;;2091450;28;20016;-81
2023/12/01 00:59:57;;;;;;;78.75;45.00;;;0.90;99.90;;;;;;2098686;28;20024;-81
2023/12/01 01:00:58;;;;;;;82.53;45.42;;;1.00;99.90;;;;;;2090569;28;20171;-81
2023/12/01 01:01:58;;;;;;;81.07;44.80;;;1.00;99.90;;;;;;2086804;28;20100;-81
2023/12/01 01:02:59;;;;;;;82.28;45.35;;;1.00;99.90;;;;;;2097586;28;20021;-81
2023/12/01 01:03:59;;;;;;;78.47;44.55;;;1.00;99.90;;;;;;2096587;28;20031;-81
2023/12/01 01:05:00;;;;;;;76.63;43.67;;;0.90;99.90;;;;;;2092942;28;20027;-81
2023/12/01 01:06:01;;;;;;;80.70;45.08;;;0.90;99.90;;;;;;2095344;28;20046;-82
2023/12/01 01:07:03;;;;;;;77.93;44.22;;;0.90;99.90;;;;;;2096663;28;20502;-81
2023/12/01 01:08:03;;;;;;;79.20;44.88;;;0.90;99.90;;;;;;2087845;28;20020;-80
2023/12/01 01:09:04;;;;;;;78.57;44.00;;;1.00;99.90;;;;;;2080719;28;20515;-81
2023/12/01 01:10:05;;;;;;;77.30;43.80;;;1.00;99.90;;;;;;2082323;28;20567;-81
2023/12/01 01:11:06;;;;;;;76.30;43.80;;;1.00;99.90;;;;;;2081114;28;20637;-82
2023/12/01 01:12:06;;;;;;;78.95;45.28;;;1.00;99.90;;;;;;2094297;28;20082;-81
2023/12/01 01:13:07;;;;;;;80.53;44.30;;;1.00;99.90;;;;;;2089830;28;20533;-81
2023/12/01 01:14:07;;;;;;;81.47;44.92;;;1.00;99.90;;;;;;2080901;28;20040;-81
2023/12/01 01:15:08;;;;;;;78.63;44.35;;;1.00;99.90;;;;;;2083766;28;20028;-81
2023/12/01 01:16:10;;;;;;;79.10;43.95;;;1.00;99.90;;;;;;2098355;28;20032;-81
2023/12/01 01:17:10;;;;;;;79.47;44.20;;;1.00;99.90;;;;;;2096529;28;20123;-81
2023/12/01 01:18:11;;;;;;;78.55;44.00;;;1.00;99.90;;;;;;2096520;28;20029;-81
2023/12/01 01:19:11;;;;;;;77.53;44.65;;;1.00;99.90;;;;;;2096421;28;20033;-82
2023/12/01 01:20:12;;;;;;;77.93;43.35;;;1.00;99.90;;;;;;2098166;28;20074;-81
2023/12/01 01:21:12;;;;;;;79.28;43.75;;;1.00;99.90;;;;;;2095706;28;20047;-81
2023/12/01 01:22:13;;;;;;;78.13;44.20;;;0.90;99.90;;;;;;2091604;28;20024;-82
2023/12/01 01:23:13;;;;;;;80.78;44.83;;;0.90;99.90;;;;;;2096500;28;20057;-81
2023/12/01 01:24:14;;;;;;;79.15;43.92;;;0.90;99.90;;;;;;2096264;28;20028;-82
2023/12/01 01:25:15;;;;;;;75.68;43.00;;;0.90;99.90;;;;;;2095691;28;20189;-82
2023/12/01 01:26:16;;;;;;;78.07;43.38;;;0.90;99.90;;;;;;2095229;28;20394;-80
2023/12/01 01:27:17;;;;;;;80.82;44.42;;;0.90;99.90;;;;;;2092101;28;20037;-80
2023/12/01 01:28:18;;;;;;;77.75;44.15;;;0.90;99.90;;;;;;2092530;28;20020;-81
2023/12/01 01:29:18;;;;;;;78.85;43.75;;;0.90;99.90;;;;;;2094807;28;20086;-80
2023/12/01 01:30:19;;;;;;;79.22;44.45;;;0.90;99.90;;;;;;2095897;28;20548;-72
2023/12/01 01:31:20;;;;;;;79.68;44.35;;;0.90;99.90;;;;;;2095004;28;20074;-70
2023/12/01 01:32:20;;;;;;;75.35;43.42;;;0.90;99.90;;;;;;2091162;28;20044;-71
2023/12/01 01:33:21;;;;;;;79.32;42.92;;;0.90;99.90;;;;;;2095219;28;20090;-70
2023/12/01 01:34:21;;;;;;;78.20;43.92;;;0.90;99.90;;;;;;2085629;28;20123;-71
2023/12/01 01:35:22;;;;;;;82.68;44.80;;;0.90;99.90;;;;;;2080187;28;20040;-70
2023/12/01 01:36:22;;;;;;;78.45;42.75;;;0.90;99.90;;;;;;2097378;28;20032;-67
2023/12/01 01:37:23;;;;;;;77.10;42.45;;;0.90;99.90;;;;;;2095411;28;20034;-78
2023/12/01 01:38:23;;;;;;;77.60;43.63;;;0.80;99.90;;;;;;2095468;28;20629;-75
2023/12/01 01:39:24;;;;;;;78.88;42.80;;;0.90;99.90;;;;;;2088302;28;20055;-70
2023/12/01 01:40:24;;;;;;;77.50;43.85;;;0.90;99.90;;;;;;2077322;28;20134;-83
2023/12/01 01:41:25;;;;;;;79.55;43.30;;;0.90;99.90;;;;;;2093399;28;20032;-82
2023/12/01 01:42:25;;;;;;;76.60;42.63;;;0.80;99.90;;;;;;2098557;28;20077;-81
2023/12/01 01:43:26;;;;;;;79.82;43.55;;;0.80;99.90;;;;;;2093489;28;20088;-81
2023/12/01 01:44:27;;;;;;;82.18;44.45;;;0.80;99.90;;;;;;2094450;28;20044;-82
2023/12/01 01:45:27;;;;;;;81.28;43.78;;;0.80;99.90;;;;;;2096142;28;20044;-81
2023/12/01 01:46:28;;;;;;;81.57;43.42;;;0.80;99.90;;;;;;2096040;28;20115;-82
2023/12/01 01:47:29;;;;;;;81.75;43.20;;;0.80;99.90;;;;;;2095035;28;20028;-82
2023/12/01 01:48:30;;;;;;;81.22;43.53;;;0.80;99.90;;;;;;2089242;28;20032;-81
2023/12/01 01:49:30;;;;;;;78.82;43.55;;;0.80;99.90;;;;;;2095871;28;20025;-81
2023/12/01 01:50:31;;;;;;;79.28;43.40;;;0.80;99.90;;;;;;2094344;28;20028;-79
2023/12/01 01:51:35;;;;;;;77.57;42.50;;;0.70;99.90;;;;;;2094557;28;20028;-82
2023/12/01 01:52:37;;;;;;;80.97;44.45;;;0.70;99.90;;;;;;2095391;28;20024;-81
2023/12/01 01:53:41;;;;;;;83.72;43.97;;;0.70;99.90;;;;;;2093677;28;20054;-82
2023/12/01 01:54:42;;;;;;;81.32;44.40;;;0.70;99.90;;;;;;2093356;28;20048;-83
2023/12/01 01:55:43;;;;;;;77.40;42.95;;;0.70;99.90;;;;;;2077829;28;20041;-81
2023/12/01 01:56:44;;;;;;;77.20;41.90;;;0.70;99.90;;;;;;2076918;28;20133;-81
2023/12/01 01:57:46;;;;;;;82.65;44.05;;;0.70;99.90;;;;;;2092158;28;20641;-81
2023/12/01 01:58:47;;;;;;;78.20;42.40;;;0.70;99.90;;;;;;2088811;28;20044;-81
2023/12/01 01:59:48;;;;;;;79.38;44.00;;;0.70;99.90;;;;;;2087002;28;20365;-82
2023/12/01 02:00:49;;;;;;;82.38;43.75;;;0.70;99.90;;;;;;2090455;28;20533;-81
2023/12/01 02:01:51;;;;;;;79.20;43.45;;;0.70;99.90;;;;;;2085067;28;20021;-80
2023/12/01 02:02:51;;;;;;;79.30;43.20;;;0.70;99.90;;;;;;2087093;28;20041;-82
2023/12/01 02:03:53;;;;;;;80.25;44.35;;;0.70;99.90;;;;;;2090278;28;20388;-82
2023/12/01 02:04:53;;;;;;;78.70;42.90;;;0.70;99.90;;;;;;2096278;28;20024;-79
2023/12/01 02:05:54;;;;;;;80.50;44.05;;;0.70;99.90;;;;;;2092822;28;20040;-80
2023/12/01 02:06:55;;;;;;;78.80;43.38;;;0.70;99.90;;;;;;2099706;28;20024;-80
2023/12/01 02:07:55;;;;;;;83.13;44.53;;;0.70;99.90;;;;;;2086720;28;20072;-80
2023/12/01 02:08:58;;;;;;;78.55;43.20;;;0.70;99.90;;;;;;2087023;28;20406;-80
2023/12/01 02:09:59;;;;;;;78.05;42.78;;;0.60;99.90;;;;;;2097451;28;20028;-81
2023/12/01 02:11:00;;;;;;;81.85;44.38;;;0.60;99.90;;;;;;2098095;28;20643;-81
2023/12/01 02:12:01;;;;;;;78.82;43.40;;;0.60;99.90;;;;;;2087546;28;20076;-81
2023/12/01 02:13:01;;;;;;;84.72;45.25;;;0.60;99.90;;;;;;2091252;28;20688;-81
2023/12/01 02:14:02;;;;;;;79.47;44.35;;;0.60;99.90;;;;;;2088046;28;20027;-81
2023/12/01 02:15:03;;;;;;;79.35;43.40;;;0.60;99.90;;;;;;2092481;28;20050;-81
2023/12/01 02:16:04;;;;;;;82.55;43.92;;;0.60;99.90;;;;;;2099313;28;20016;-80
2023/12/01 02:17:05;;;;;;;80.07;43.13;;;0.50;99.90;;;;;;2099149;28;20071;-82
2023/12/01 02:18:21;;;;;;;81.93;44.88;;;0.50;99.90;;;;;;2100336;28;20052;-81
2023/12/01 02:19:21;;;;;;;82.35;43.80;;;0.60;99.90;;;;;;2089971;28;20048;-83
2023/12/01 02:20:22;;;;;;;83.03;44.47;;;0.50;99.90;;;;;;2091097;28;20290;-81
2023/12/01 02:21:26;;;;;;;80.43;43.72;;;0.50;99.90;;;;;;2084203;28;20030;-83
2023/12/01 02:22:27;;;;;;;79.97;43.03;;;0.50;99.90;;;;;;2095917;28;20020;-82
2023/12/01 02:23:29;;;;;;;82.40;44.72;;;0.50;99.90;;;;;;2099015;28;20021;-82
2023/12/01 02:24:29;;;;;;;80.05;43.92;;;0.50;99.90;;;;;;2097506;28;20513;-82
2023/12/01 02:25:30;;;;;;;80.75;42.97;;;0.50;99.90;;;;;;2088513;28;20465;-81
2023/12/01 02:26:30;;;;;;;84.32;44.13;;;0.50;99.90;;;;;;2093320;28;20024;-81
2023/12/01 02:27:31;;;;;;;82.15;44.58;;;0.50;99.90;;;;;;2097765;28;20037;-81
2023/12/01 02:28:31;;;;;;;82.32;44.33;;;0.50;99.90;;;;;;2098689;28;20742;-81
2023/12/01 02:29:32;;;;;;;84.55;44.47;;;0.50;99.90;;;;;;2101123;28;20032;-82
2023/12/01 02:30:32;;;;;;;79.53;43.08;;;0.50;99.90;;;;;;2088576;28;20082;-81
2023/12/01 02:31:33;;;;;;;83.05;44.50;;;0.50;99.90;;;;;;2085813;28;20028;-84
2023/12/01 02:32:34;;;;;;;85.22;45.08;;;0.50;99.90;;;;;;2095065;28;20024;-79
2023/12/01 02:33:35;;;;;;;82.47;43.70;;;0.50;99.90;;;;;;2086225;28;20103;-82
2023/12/01 02:34:36;;;;;;;80.82;43.85;;;0.50;99.90;;;;;;2091107;28;20565;-81
2023/12/01 02:35:36;;;;;;;80.63;43.55;;;0.50;99.90;;;;;;2087570;28;20040;-81
2023/12/01 02:36:37;;;;;;;81.45;44.10;;;0.50;99.90;;;;;;2087507;28;20098;-79
2023/12/01 02:37:38;;;;;;;81.97;44.00;;;0.50;99.90;;;;;;2080628;28;20033;-81
2023/12/01 02:38:38;;;;;;;79.35;43.63;;;0.50;99.90;;;;;;2081830;28;20128;-80
2023/12/01 02:39:39;;;;;;;82.18;43.65;;;0.50;99.90;;;;;;2076253;28;20099;-80
2023/12/01 02:40:42;;;;;;;82.10;44.47;;;0.50;99.90;;;;;;2087484;28;20055;-81
2023/12/01 02:41:43;;;;;;;84.30;45.53;;;0.50;99.90;;;;;;2081583;28;20025;-82
2023/12/01 02:42:46;;;;;;;82.72;44.42;;;0.50;99.90;;;;;;2078378;28;20839;-81
2023/12/01 02:43:47;;;;;;;83.63;45.00;;;0.50;99.90;;;;;;2086706;28;20076;-82
2023/12/01 02:44:48;;;;;;;84.80;44.47;;;0.40;99.90;;;;;;2093736;28;20036;-81
2023/12/01 02:45:49;;;;;;;83.15;44.75;;;0.40;99.90;;;;;;2086060;28;20056;-82
2023/12/01 02:46:49;;;;;;;81.60;44.10;;;0.40;99.90;;;;;;2085445;28;20544;-81
2023/12/01 02:47:50;;;;;;;83.05;43.55;;;0.40;99.90;;;;;;2093214;28;20017;-81
2023/12/01 02:48:50;;;;;;;81.28;43.97;;;0.30;99.90;;;;;;2083789;28;20032;-81
2023/12/01 02:49:51;;;;;;;81.70;43.97;;;0.30;99.90;;;;;;2079246;28;20120;-81
2023/12/01 02:50:52;;;;;;;79.57;43.10;;;0.30;99.90;;;;;;2088079;28;20571;-81
2023/12/01 02:51:52;;;;;;;83.72;44.13;;;0.30;99.90;;;;;;2097059;28;20493;-80
2023/12/01 02:52:54;;;;;;;83.13;43.83;;;0.30;99.90;;;;;;2086235;28;20033;-82
2023/12/01 02:53:55;;;;;;;80.18;43.35;;;0.40;99.90;;;;;;2093944;28;20040;-79
2023/12/01 02:54:56;;;;;;;83.25;44.40;;;0.30;99.90;;;;;;2101853;28;20035;-81
2023/12/01 02:55:56;;;;;;;83.68;44.35;;;0.30;99.90;;;;;;2088795;28;20036;-80
2023/12/01 02:56:57;;;;;;;82.22;43.53;;;0.30;99.90;;;;;;2101178;28;20032;-81
2023/12/01 02:57:57;;;;;;;81.60;44.05;;;0.30;99.90;;;;;;2085464;28;20024;-81
2023/12/01 02:58:58;;;;;;;79.15;43.08;;;0.40;99.90;;;;;;2086436;28;20029;-81
2023/12/01 02:59:58;;;;;;;81.32;43.95;;;0.40;99.90;;;;;;2097237;28;20121;-81
2023/12/01 03:01:00;;;;;;;81.03;43.35;;;0.40;99.90;;;;;;2092678;28;20017;-81
2023/12/01 03:02:00;;;;;;;81.85;43.97;;;0.40;99.90;;;;;;2088612;28;20047;-76
2023/12/01 03:03:01;;;;;;;84.13;44.92;;;0.40;99.90;;;;;;2084923;28;20128;-80
2023/12/01 03:04:01;;;;;;;82.43;43.85;;;0.40;99.90;;;;;;2096861;28;20024;-79
2023/12/01 03:05:02;;;;;;;80.50;43.90;;;0.40;99.90;;;;;;2087887;28;20021;-81
2023/12/01 03:06:03;;;;;;;77.18;42.80;;;0.40;99.90;;;;;;2092395;28;20309;-81
2023/12/01 03:07:04;;;;;;;80.07;42.90;;;0.40;99.90;;;;;;2095378;28;20036;-81
2023/12/01 03:08:05;;;;;;;79.32;43.38;;;0.40;99.90;;;;;;2085562;28;20029;-81
2023/12/01 03:09:16;;;;;;;82.97;43.13;;;0.50;99.90;;;;;;2075428;28;20076;-82
2023/12/01 03:10:17;;;;;;;80.80;42.95;;;0.50;99.90;;;;;;2091180;28;20044;-82
2023/12/01 03:11:22;;;;;;;81.25;43.40;;;0.50;99.90;;;;;;2096926;28;20065;-83
2023/12/01 03:12:22;;;;;;;78.95;43.08;;;0.40;99.90;;;;;;2091722;28;20032;-82
2023/12/01 03:13:23;;;;;;;82.72;43.22;;;0.50;99.90;;;;;;2090595;28;20038;-81
2023/12/01 03:14:24;;;;;;;81.70;43.00;;;0.50;99.90;;;;;;2086421;28;20044;-82
2023/12/01 03:15:25;;;;;;;78.95;42.92;;;0.50;99.90;;;;;;2091761;28;20028;-82
2023/12/01 03:16:26;;;;;;;79.50;42.58;;;0.50;99.90;;;;;;2097842;28;20025;-81
2023/12/01 03:17:26;;;;;;;78.93;42.50;;;0.50;99.90;;;;;;2100277;28;20032;-76
2023/12/01 03:18:27;;;;;;;77.13;42.15;;;0.50;99.90;;;;;;2099221;28;20099;-80
2023/12/01 03:19:28;;;;;;;77.32;42.10;;;0.50;99.90;;;;;;2093212;28;20028;-80
2023/12/01 03:20:28;;;;;;;78.45;42.80;;;0.50;99.90;;;;;;2092967;28;20021;-81
2023/12/01 03:21:29;;;;;;;80.07;43.15;;;0.50;99.90;;;;;;2080125;28;20551;-81
2023/12/01 03:22:29;;;;;;;81.88;44.17;;;0.50;99.90;;;;;;2080462;28;20036;-81
2023/12/01 03:23:30;;;;;;;76.82;42.83;;;0.50;99.90;;;;;;2077377;28;20041;-81
2023/12/01 03:24:30;;;;;;;77.95;43.08;;;0.50;99.90;;;;;;2084649;28;20048;-81
2023/12/01 03:25:33;;;;;;;79.25;43.28;;;0.40;99.90;;;;;;2088362;28;20036;-81
2023/12/01 03:26:33;;;;;;;81.63;42.80;;;0.40;99.90;;;;;;2089147;28;20037;-82
2023/12/01 03:27:34;;;;;;;79.60;43.17;;;0.40;99.90;;;;;;2096172;28;20020;-83
2023/12/01 03:28:34;;;;;;;76.55;41.55;;;0.40;99.90;;;;;;2076201;28;20060;-81
2023/12/01 03:29:35;;;;;;;78.80;42.40;;;0.30;99.90;;;;;;2086782;28;20557;-81
2023/12/01 03:30:36;;;;;;;79.93;43.00;;;0.40;99.90;;;;;;2093132;28;20025;-81
2023/12/01 03:31:36;;;;;;;80.43;43.30;;;0.40;99.90;;;;;;2084793;28;20027;-83
2023/12/01 03:32:37;;;;;;;82.22;44.05;;;0.30;99.90;;;;;;2077948;28;20037;-82
2023/12/01 03:33:37;;;;;;;84.15;44.70;;;0.30;99.90;;;;;;2091244;28;20025;-82
2023/12/01 03:34:38;;;;;;;82.80;44.33;;;0.30;99.90;;;;;;2096214;28;20506;-82
2023/12/01 03:35:38;;;;;;;79.80;42.83;;;0.30;99.90;;;;;;2085823;28;20530;-82
2023/12/01 03:36:39;;;;;;;80.18;43.20;;;0.30;99.90;;;;;;2091262;28;20051;-81
2023/12/01 03:37:40;;;;;;;80.68;43.42;;;0.30;99.90;;;;;;2085327;28;20064;-82
2023/12/01 03:38:40;;;;;;;78.90;43.08;;;0.30;99.90;;;;;;2091942;28;20090;-82
2023/12/01 03:39:41;;;;;;;79.45;41.92;;;0.30;99.90;;;;;;2096206;28;20526;-82
2023/12/01 03:40:41;;;;;;;80.22;43.10;;;0.30;99.90;;;;;;2084998;28;20873;-82
2023/12/01 03:41:47;;;;;;;79.60;42.88;;;0.30;99.90;;;;;;2070828;28;20029;-81
2023/12/01 03:42:49;;;;;;;78.57;42.30;;;0.30;99.90;;;;;;2083620;28;20037;-82
2023/12/01 03:43:50;;;;;;;78.40;42.42;;;0.30;99.90;;;;;;2084673;28;20056;-80
2023/12/01 03:44:50;;;;;;;79.97;42.65;;;0.30;99.90;;;;;;2091964;28;20043;-81
2023/12/01 03:45:51;;;;;;;82.07;44.00;;;0.40;99.90;;;;;;2087161;28;20032;-82
2023/12/01 03:46:51;;;;;;;78.50;42.38;;;0.40;99.90;;;;;;2092809;28;20527;-81
2023/12/01 03:47:52;;;;;;;82.80;44.03;;;0.40;99.90;;;;;;2092750;28;20021;-82
2023/12/01 03:48:52;;;;;;;79.35;42.63;;;0.40;99.90;;;;;;2094949;28;20123;-81
2023/12/01 03:49:53;;;;;;;81.53;43.63;;;0.40;99.90;;;;;;2088908;28;20067;-80
2023/12/01 03:50:53;;;;;;;80.15;42.70;;;0.50;99.90;;;;;;2091648;28;20020;-81
2023/12/01 03:51:54;;;;;;;81.68;43.22;;;0.40;99.90;;;;;;2093196;28;20336;-81
2023/12/01 03:52:54;;;;;;;82.15;43.17;;;0.40;99.90;;;;;;2084350;28;20617;-80
2023/12/01 03:53:55;;;;;;;83.13;44.05;;;0.40;99.90;;;;;;2084363;28;20021;-81
2023/12/01 03:54:55;;;;;;;80.95;43.17;;;0.50;99.90;;;;;;2085884;28;20018;-82
2023/12/01 03:55:58;;;;;;;78.28;42.30;;;0.50;99.90;;;;;;2094008;28;20017;-80
2023/12/01 03:56:58;;;;;;;79.38;42.67;;;0.50;99.90;;;;;;2093008;28;20074;-82
2023/12/01 03:58:02;;;;;;;76.05;42.15;;;0.50;99.90;;;;;;2084507;28;20448;-81
2023/12/01 03:59:09;;;;;;;79.55;42.65;;;0.40;99.90;;;;;;2089187;28;20067;-82
2023/12/01 04:00:16;;;;;;;79.20;42.78;;;0.40;99.90;;;;;;2087836;28;20055;-84
2023/12/01 04:01:16;;;;;;;78.75;41.63;;;0.40;99.90;;;;;;2088640;28;20060;-80
2023/12/01 04:02:17;;;;;;;82.65;43.60;;;0.30;99.90;;;;;;2087501;28;20091;-81
2023/12/01 04:03:18;;;;;;;81.10;43.17;;;0.40;99.90;;;;;;2077169;28;20079;-83
2023/12/01 04:04:19;;;;;;;85.20;43.30;;;0.40;99.90;;;;;;2079379;28;20587;-82
2023/12/01 04:05:21;;;;;;;78.95;42.42;;;0.30;99.90;;;;;;2078316;28;20017;-82
2023/12/01 04:06:22;;;;;;;79.35;42.97;;;0.30;99.90;;;;;;2078084;28;20038;-81
2023/12/01 04:07:22;;;;;;;78.53;42.85;;;0.30;99.90;;;;;;2084850;28;20021;-83
2023/12/01 04:08:23;;;;;;;83.32;42.95;;;0.30;99.90;;;;;;2093873;28;20020;-83
2023/12/01 04:09:23;;;;;;;78.47;42.95;;;0.30;99.90;;;;;;2092309;28;20050;-80
2023/12/01 04:10:25;;;;;;;84.70;43.55;;;0.30;99.90;;;;;;2086378;28;20182;-81
2023/12/01 04:11:26;;;;;;;83.38;43.97;;;0.30;99.90;;;;;;2096408;28;20028;-82
2023/12/01 04:12:29;;;;;;;80.65;41.85;;;0.30;99.90;;;;;;2093250;28;20033;-82
2023/12/01 04:13:29;;;;;;;81.00;43.33;;;0.20;99.90;;;;;;2077720;28;20018;-80
2023/12/01 04:14:30;;;;;;;76.70;41.28;;;0.30;99.90;;;;;;2092466;28;20029;-81
2023/12/01 04:15:31;;;;;;;75.75;41.40;;;0.30;99.90;;;;;;2093168;28;20023;-81
2023/12/01 04:16:33;;;;;;;81.43;42.80;;;0.30;99.90;;;;;;2089618;28;20033;-81
2023/12/01 04:17:34;;;;;;;79.10;42.65;;;0.30;99.90;;;;;;2092972;28;20131;-80
2023/12/01 04:18:35;;;;;;;79.55;42.17;;;0.30;99.90;;;;;;2085295;28;20124;-81
2023/12/01 04:19:37;;;;;;;77.70;41.60;;;0.30;99.90;;;;;;2096241;28;20032;-81
2023/12/01 04:20:38;;;;;;;82.93;42.97;;;0.30;99.90;;;;;;2084642;28;20107;-78
2023/12/01 04:21:39;;;;;;;77.95;41.63;;;0.30;99.90;;;;;;2086645;28;20041;-79
2023/12/01 04:22:39;;;;;;;80.35;42.38;;;0.40;99.90;;;;;;2086914;28;20151;-81
2023/12/01 04:23:40;;;;;;;75.43;40.67;;;0.40;99.90;;;;;;2075940;28;20083;-79
2023/12/01 04:24:40;;;;;;;79.45;42.17;;;0.40;99.90;;;;;;2086211;28;20041;-80
2023/12/01 04:25:49;;;;;;;78.13;41.95;;;0.40;99.90;;;;;;2088233;28;20096;-79
2023/12/01 04:26:50;;;;;;;76.40;39.78;;;0.40;99.90;;;;;;2088951;28;20040;-80
2023/12/01 04:27:52;;;;;;;77.93;41.40;;;0.40;99.90;;;;;;2083974;28;20032;-80
2023/12/01 04:28:53;;;;;;;76.72;41.15;;;0.40;99.90;;;;;;2086955;28;20085;-81
2023/12/01 04:29:53;;;;;;;77.43;40.72;;;0.40;99.90;;;;;;2088217;28;20040;-80
2023/12/01 04:30:54;;;;;;;75.35;40.17;;;0.40;99.90;;;;;;2092211;28;20537;-83
2023/12/01 04:31:55;;;;;;;80.63;41.83;;;0.40;99.90;;;;;;2090269;28;20464;-81
2023/12/01 04:32:56;;;;;;;78.28;41.05;;;0.40;99.90;;;;;;2091313;28;20024;-81
2023/12/01 04:33:57;;;;;;;76.45;40.88;;;0.40;99.90;;;;;;2077170;28;20049;-79
2023/12/01 04:34:57;;;;;;;76.85;40.92;;;0.40;99.90;;;;;;2091361;28;20120;-80
2023/12/01 04:35:58;;;;;;;78.20;41.35;;;0.40;99.90;;;;;;2091319;28;20039;-80
2023/12/01 04:36:59;;;;;;;78.88;41.88;;;0.40;99.90;;;;;;2092505;28;20045;-81
2023/12/01 04:38:05;;;;;;;78.30;40.92;;;0.30;99.90;;;;;;2084577;28;20029;-80
2023/12/01 04:39:06;;;;;;;78.90;41.00;;;0.30;99.90;;;;;;2086198;28;20036;-80
2023/12/01 04:40:14;;;;;;;81.00;41.78;;;0.40;99.90;;;;;;2092837;28;20020;-80
2023/12/01 04:41:15;;;;;;;80.45;41.33;;;0.40;99.90;;;;;;2095166;28;20103;-80
2023/12/01 04:42:15;;;;;;;77.60;41.28;;;0.40;99.90;;;;;;2091058;28;20021;-83
2023/12/01 04:43:17;;;;;;;77.63;40.88;;;0.50;99.90;;;;;;2088557;28;20013;-81
2023/12/01 04:44:18;;;;;;;72.78;39.63;;;0.50;99.90;;;;;;2088310;28;20727;-82
2023/12/01 04:45:20;;;;;;;91.40;45.35;;;0.50;99.90;;;;;;2085866;28;20039;-81
2023/12/01 04:46:21;;;;;;;81.18;43.28;;;0.50;99.90;;;;;;2088466;28;20553;-81
2023/12/01 04:47:21;;;;;;;83.32;43.63;;;0.50;99.90;;;;;;2084535;28;20090;-82
2023/12/01 04:48:22;;;;;;;80.97;42.15;;;0.50;99.90;;;;;;2085516;28;20025;-82
2023/12/01 04:49:22;;;;;;;84.65;43.95;;;0.50;99.90;;;;;;2091897;28;20113;-82
2023/12/01 04:50:25;;;;;;;81.43;41.45;;;0.50;99.90;;;;;;2091666;28;20028;-81
2023/12/01 04:51:26;;;;;;;77.70;40.92;;;0.50;99.90;;;;;;2090292;28;20079;-82
2023/12/01 04:52:26;;;;;;;79.90;41.22;;;0.50;99.90;;;;;;2087158;28;20029;-81
2023/12/01 04:53:27;;;;;;;81.47;41.60;;;0.50;99.90;;;;;;2089156;28;20032;-81
2023/12/01 04:54:27;;;;;;;95.15;47.58;;;0.50;99.90;;;;;;2088742;28;20024;-81
2023/12/01 04:55:30;;;;;;;88.65;44.20;;;0.50;99.90;;;;;;2092928;28;20036;-82
2023/12/01 04:56:31;;;;;;;85.80;42.92;;;0.50;99.90;;;;;;2093251;28;20111;-82
2023/12/01 04:57:31;;;;;;;76.85;40.65;;;0.40;99.90;;;;;;2089630;28;20509;-81
2023/12/01 04:58:32;;;;;;;81.35;42.05;;;0.50;99.90;;;;;;2085279;28;20025;-81
2023/12/01 04:59:32;;;;;;;80.80;42.53;;;0.50;99.90;;;;;;2085110;28;20036;-82
2023/12/01 05:00:33;;;;;;;84.68;43.65;;;0.50;99.90;;;;;;2089215;28;20056;-81
2023/12/01 05:01:35;;;;;;;79.88;41.92;;;0.50;99.90;;;;;;2088477;28;20099;-79
2023/12/01 05:02:36;;;;;;;78.00;41.17;;;0.50;99.90;;;;;;2088911;28;20082;-81
2023/12/01 05:03:36;;;;;;;75.13;40.28;;;0.50;99.90;;;;;;2092984;28;20433;-82
2023/12/01 05:04:37;;;;;;;78.65;41.05;;;0.50;99.90;;;;;;2085434;28;20510;-81
2023/12/01 05:05:40;;;;;;;75.45;39.10;;;0.50;99.90;;;;;;2086828;28;20509;-81
2023/12/01 05:06:41;;;;;;;76.63;40.58;;;0.50;99.90;;;;;;2086729;28;20051;-81
2023/12/01 05:07:42;;;;;;;78.72;41.47;;;0.50;99.90;;;;;;2094181;28;20518;-80
2023/12/01 05:08:43;;;;;;;79.18;41.47;;;0.50;99.90;;;;;;2092972;28;20043;-81
2023/12/01 05:09:44;;;;;;;75.82;41.10;;;0.60;99.90;;;;;;2090800;28;20124;-81
2023/12/01 05:10:44;;;;;;;78.15;40.83;;;0.50;99.90;;;;;;2094822;28;20028;-82
2023/12/01 05:11:45;;;;;;;84.18;47.35;;;0.50;99.90;;;;;;2091259;28;20025;-80
2023/12/01 05:12:50;;;;;;;75.43;40.90;;;0.50;99.90;;;;;;2096607;28;20039;-81